Time;durP1;ratioP1;P1;durP2;ratioP2;P2;SDS_P1;SDS_P2;PMS_P1;PMS_P2;Temp;Humidity;BMP_temperature;BMP_pressure;BME280_temperature;BME280_humidity;BME280_pressure;Samples;Min_cycle;Max_cycle;Signal;HPM_P1;HPM_P2
2022/03/11 00:09:13;;;;;;;10.27;6.93;;;;;;;-1.70;47.51;100090.09;4821699;23;20093;-85
2022/03/11 00:16:55;;;;;;;9.68;7.13;;;;;;;-0.98;47.99;100252.63;5558203;23;21374;-80
2022/03/11 00:32:17;;;;;;;8.73;7.37;;;;;;;-2.17;47.62;100041.03;5302943;23;20041;-81
2022/03/11 00:34:43;;;;;;;10.10;8.33;;;;;;;-2.50;47.36;99984.22;5024254;28;20041;-80
2022/03/11 00:37:08;;;;;;;10.63;8.33;;;;;;;-0.21;47.74;100316.47;5041084;28;19994;-81
2022/03/11 00:44:44;;;;;;;11.00;8.73;;;;;;;-1.64;48.12;100144.13;5666328;23;20093;-84
2022/03/11 00:47:10;;;;;;;8.73;7.80;;;;;;;0.36;47.86;100472.34;5033422;28;20081;-84
2022/03/11 00:49:37;;;;;;;13.10;8.63;;;;;;;-2.07;47.71;100083.56;5037816;28;20026;-85
2022/03/11 00:52:03;;;;;;;11.83;8.67;;;;;;;-1.01;48.18;100278.72;5038808;28;20093;-84
2022/03/11 00:54:29;;;;;;;10.07;8.93;;;;;;;0.95;48.27;100620.44;5022115;28;20026;-85
2022/03/11 00:56:55;;;;;;;9.43;7.93;;;;;;;-1.17;47.95;100244.25;5038822;28;20014;-83
2022/03/11 00:59:21;;;;;;;10.40;7.93;;;;;;;-1.25;47.64;100254.19;5038657;28;20022;-85
2022/03/11 01:09:32;;;;;;;10.03;8.00;;;;;;;-0.65;48.66;100362.22;5945781;23;20035;-81
2022/03/11 01:27:29;;;;;;;9.00;7.60;;;;;;;-1.60;49.00;100213.78;5506984;23;20030;-82
2022/03/11 01:29:55;;;;;;;8.97;7.40;;;;;;;-1.78;49.34;100203.59;5535890;23;20118;-82
2022/03/11 01:32:21;;;;;;;9.43;8.17;;;;;;;-2.79;49.13;99988.41;5255290;23;20061;-84
2022/03/11 01:34:46;;;;;;;8.87;7.53;;;;;;;-1.43;49.24;100272.44;5261614;23;20052;-83
2022/03/11 01:37:12;;;;;;;8.63;7.30;;;;;;;-1.23;49.39;100273.91;5038335;28;20020;-83
2022/03/11 01:49:59;;;;;;;8.90;7.27;;;;;;;-1.37;48.94;100206.50;5491855;23;20046;-84
2022/03/11 01:55:00;;;;;;;10.07;7.77;;;;;;;-2.81;49.00;100047.91;5683194;23;20029;-82
2022/03/11 01:57:26;;;;;;;8.10;6.60;;;;;;;-0.60;48.49;100387.91;5037776;28;20040;-82
2022/03/11 01:59:52;;;;;;;8.43;6.80;;;;;;;-2.71;48.72;100045.69;5050325;23;20054;-81
2022/03/11 02:02:17;;;;;;;8.73;7.10;;;;;;;-2.52;48.38;100081.72;5037906;28;20034;-82
2022/03/11 02:07:20;;;;;;;8.77;7.03;;;;;;;-2.39;48.30;100077.56;5064004;23;20061;-84
2022/03/11 02:09:46;;;;;;;8.90;7.63;;;;;;;-2.05;48.14;100128.31;5036788;28;20030;-83
2022/03/11 02:12:25;;;;;;;9.77;7.83;;;;;;;-1.35;47.87;100251.28;5038293;28;20021;-82
2022/03/11 02:14:51;;;;;;;9.47;8.07;;;;;;;-2.31;48.05;100096.91;5040946;28;20026;-84
2022/03/11 02:17:17;;;;;;;10.90;7.67;;;;;;;-1.17;48.27;100309.84;5040996;28;20065;-83
2022/03/11 02:19:43;;;;;;;11.23;8.07;;;;;;;-1.43;48.42;100196.50;5040511;28;20049;-84
2022/03/11 02:22:09;;;;;;;9.77;7.40;;;;;;;-1.93;47.64;100175.03;5040840;28;20005;-82
2022/03/11 02:32:20;;;;;;;8.30;7.40;;;;;;;0.15;47.82;100553.19;5341352;23;20044;-83
2022/03/11 02:39:56;;;;;;;11.10;8.50;;;;;;;-1.48;47.63;100295.16;5190004;23;19909;-84
2022/03/11 02:42:22;;;;;;;10.03;8.20;;;;;;;-1.60;47.79;100281.09;5041309;28;20145;-85
2022/03/11 02:44:48;;;;;;;10.23;7.40;;;;;;;0.29;47.47;100604.34;5041145;28;20014;-85
2022/03/11 02:52:26;;;;;;;9.47;7.57;;;;;;;-2.64;47.02;100112.47;5703799;23;20041;-80
2022/03/11 02:54:52;;;;;;;9.07;6.90;;;;;;;-2.83;47.33;100070.41;5041548;28;20025;-83
2022/03/11 02:57:18;;;;;;;9.53;7.57;;;;;;;-2.94;46.93;100078.72;5041347;28;20030;-83
2022/03/11 03:04:54;;;;;;;10.47;7.80;;;;;;;-1.44;47.00;100268.16;5075552;23;20054;-85
2022/03/11 03:07:20;;;;;;;8.00;6.80;;;;;;;-2.37;47.21;100146.38;5040354;28;20021;-83
2022/03/11 03:09:46;;;;;;;8.20;6.57;;;;;;;-1.70;46.86;100237.66;5040125;28;20045;-84
2022/03/11 03:12:11;;;;;;;9.63;7.77;;;;;;;-2.41;46.59;100151.78;5040923;28;20012;-83
2022/03/11 03:14:38;;;;;;;8.87;6.60;;;;;;;-3.16;46.09;100060.06;5040959;28;20013;-84
2022/03/11 03:17:04;;;;;;;10.97;7.23;;;;;;;0.29;46.43;100648.50;5323695;23;20084;-84
2022/03/11 03:19:30;;;;;;;9.37;6.53;;;;;;;-3.00;46.44;100073.03;5027999;28;20033;-83
2022/03/11 03:21:56;;;;;;;8.37;6.40;;;;;;;-1.65;46.77;100295.19;5034541;28;20041;-83
2022/03/11 03:24:21;;;;;;;9.07;6.87;;;;;;;0.30;46.96;100600.81;5038982;28;20025;-84
2022/03/11 03:26:47;;;;;;;8.50;6.13;;;;;;;-1.79;46.46;100290.75;5039797;28;20021;-84
2022/03/11 03:29:13;;;;;;;9.53;6.70;;;;;;;-1.62;46.81;100314.00;5039888;28;20014;-84
2022/03/11 03:31:39;;;;;;;9.40;6.60;;;;;;;-1.67;46.56;100305.63;5039654;28;20026;-84
2022/03/11 03:36:39;;;;;;;7.13;5.70;;;;;;;-2.95;46.47;100120.97;5242288;23;20045;-84
2022/03/11 03:46:51;;;;;;;9.70;6.73;;;;;;;-2.26;45.78;100210.44;5135971;23;20060;-84
2022/03/11 03:49:19;;;;;;;9.27;7.27;;;;;;;0.23;46.42;100609.88;5040163;28;20030;-84
2022/03/11 03:54:20;;;;;;;8.93;7.00;;;;;;;-1.70;46.13;100323.94;5314052;23;20034;-83
2022/03/11 03:56:46;;;;;;;8.63;7.23;;;;;;;-2.05;46.12;100230.03;5299591;23;20072;-83
2022/03/11 04:01:47;;;;;;;9.87;7.03;;;;;;;0.27;46.08;100562.88;5073805;23;20050;-83
2022/03/11 04:04:13;;;;;;;8.37;7.10;;;;;;;-3.10;45.62;100079.56;5021945;28;20080;-84
2022/03/11 04:06:42;;;;;;;9.60;6.77;;;;;;;-3.00;45.70;100120.34;5039308;28;20026;-84
2022/03/11 04:09:09;;;;;;;9.00;7.20;;;;;;;0.23;45.54;100573.53;5039012;28;20045;-83
2022/03/11 04:11:35;;;;;;;10.07;7.43;;;;;;;-3.12;45.43;100102.06;5022465;28;20021;-83
2022/03/11 04:14:02;;;;;;;7.97;6.77;;;;;;;-0.03;45.02;100598.31;5039285;28;20021;-83
2022/03/11 04:16:28;;;;;;;7.43;5.73;;;;;;;0.12;45.33;100635.63;5038804;28;20087;-84
2022/03/11 04:18:54;;;;;;;8.10;6.17;;;;;;;-3.00;44.54;100142.75;5038946;28;20029;-82
2022/03/11 04:21:20;;;;;;;8.80;6.33;;;;;;;-3.52;45.03;100070.50;5038870;28;20030;-84
2022/03/11 04:23:48;;;;;;;7.10;6.23;;;;;;;-2.37;44.85;100249.81;5039058;28;20021;-84
2022/03/11 04:26:14;;;;;;;7.17;6.13;;;;;;;-3.31;44.67;100103.00;5038752;28;20056;-84
2022/03/11 04:28:41;;;;;;;9.03;6.07;;;;;;;-3.55;44.62;99988.06;5084381;23;20054;-82
2022/03/11 04:38:52;;;;;;;10.07;7.50;;;;;;;-1.20;44.72;100464.63;5944877;23;20246;-82
2022/03/11 04:41:17;;;;;;;12.37;6.87;;;;;;;-3.27;44.32;100101.94;5039066;28;20072;-83
2022/03/11 04:43:45;;;;;;;8.77;6.33;;;;;;;-2.72;44.00;100144.81;5038637;28;20016;-82
2022/03/11 04:46:11;;;;;;;7.70;6.43;;;;;;;-1.99;44.24;100273.69;5038914;28;20010;-82
2022/03/11 04:48:36;;;;;;;8.07;6.17;;;;;;;-1.94;44.88;100375.22;5039155;28;20076;-83
2022/03/11 04:51:03;;;;;;;9.23;6.77;;;;;;;-3.34;44.22;100097.97;5165149;23;20057;-84
2022/03/11 04:53:29;;;;;;;8.47;6.57;;;;;;;-3.12;43.91;100144.22;5038304;28;20478;-84
2022/03/11 04:55:55;;;;;;;11.27;7.30;;;;;;;-1.39;44.74;100416.38;5038138;28;20026;-84
2022/03/11 04:58:20;;;;;;;11.27;8.00;;;;;;;-2.95;44.26;100198.47;5021115;28;20034;-83
2022/03/11 05:00:46;;;;;;;11.93;8.20;;;;;;;-0.05;44.33;100613.16;5038035;28;20040;-83
2022/03/11 05:03:13;;;;;;;13.37;8.30;;;;;;;-2.28;43.45;100345.03;5038759;28;20037;-81
2022/03/11 05:05:39;;;;;;;10.33;7.43;;;;;;;-1.33;44.15;100404.88;5149618;23;20033;-79
2022/03/11 05:08:05;;;;;;;10.40;7.70;;;;;;;-3.20;43.45;100146.34;5021509;28;20480;-82
2022/03/11 05:10:31;;;;;;;12.63;8.33;;;;;;;-3.41;44.10;100121.59;5038837;28;20029;-83
2022/03/11 05:12:56;;;;;;;11.17;6.80;;;;;;;-2.99;43.85;100128.94;5038563;28;20034;-82
2022/03/11 05:15:24;;;;;;;9.57;7.40;;;;;;;-3.41;43.92;100106.09;5586654;23;20442;-82
2022/03/11 05:23:00;;;;;;;11.37;8.07;;;;;;;-2.28;43.72;100274.34;5229837;23;20545;-83
2022/03/11 05:25:26;;;;;;;10.17;7.33;;;;;;;-2.91;43.80;100187.09;5018139;28;20093;-83
2022/03/11 05:27:52;;;;;;;8.77;6.50;;;;;;;-1.78;43.79;100339.03;5038417;28;20030;-82
2022/03/11 05:32:53;;;;;;;8.63;6.13;;;;;;;0.13;43.21;100637.28;5435767;23;20094;-84
2022/03/11 05:35:18;;;;;;;11.27;7.27;;;;;;;-2.78;43.47;100228.66;5214143;23;20133;-81
2022/03/11 05:37:46;;;;;;;12.90;7.70;;;;;;;-1.98;42.48;100388.41;5375627;23;20057;-82
2022/03/11 05:40:12;;;;;;;10.47;7.27;;;;;;;-3.41;42.77;100077.72;5105245;23;20040;-81
2022/03/11 05:42:38;;;;;;;8.47;6.60;;;;;;;-2.08;42.92;100340.63;5321160;23;20102;-83
2022/03/11 05:45:04;;;;;;;10.00;6.73;;;;;;;-3.05;42.88;100188.66;5037255;28;20042;-82
2022/03/11 05:47:30;;;;;;;10.10;7.67;;;;;;;-2.12;43.00;100321.81;5036640;28;20049;-84
2022/03/11 05:49:56;;;;;;;8.47;6.53;;;;;;;-3.03;41.54;100168.75;5037012;28;20040;-83
2022/03/11 05:52:22;;;;;;;10.93;6.90;;;;;;;-1.36;42.08;100402.44;5036798;28;20014;-83
2022/03/11 05:54:48;;;;;;;9.90;6.60;;;;;;;-2.43;41.75;100236.34;5037065;28;20032;-84
2022/03/11 05:57:14;;;;;;;11.37;6.57;;;;;;;0.37;41.79;100745.03;5037002;28;20010;-84
2022/03/11 05:59:40;;;;;;;9.67;6.67;;;;;;;-1.77;41.68;100293.28;5066339;23;20038;-79
2022/03/11 06:02:06;;;;;;;9.73;6.20;;;;;;;-2.50;41.80;100225.50;5310985;23;20053;-82
2022/03/11 06:07:07;;;;;;;7.63;5.40;;;;;;;-2.21;41.28;100213.66;5487515;23;20044;-81
2022/03/11 06:09:32;;;;;;;9.70;5.73;;;;;;;-2.21;41.04;100242.13;5037413;28;20037;-82
2022/03/11 06:14:33;;;;;;;8.03;6.40;;;;;;;-2.22;39.76;100186.13;6023729;23;20105;-81
2022/03/11 06:24:44;;;;;;;10.70;7.37;;;;;;;-2.61;39.71;100213.13;4872811;26;20054;-84
2022/03/11 06:27:10;;;;;;;10.03;7.83;;;;;;;-1.51;40.12;100391.09;5017664;28;20296;-85
2022/03/11 06:42:40;;;;;;;10.27;8.13;;;;;;;-1.98;39.66;100285.72;5938336;23;20040;-83
2022/03/11 06:47:42;;;;;;;11.10;7.40;;;;;;;-2.58;39.74;100196.63;5177352;23;20040;-83
2022/03/11 06:52:43;;;;;;;10.00;6.50;;;;;;;-1.29;39.79;100389.06;5971709;23;20045;-81
2022/03/11 07:10:40;;;;;;;10.13;8.20;;;;;;;-0.97;39.36;100435.75;5933220;23;19927;-80
2022/03/11 07:20:51;;;;;;;9.63;6.83;;;;;;;-1.81;39.11;100307.28;5500443;23;20243;-84
2022/03/11 07:23:17;;;;;;;12.30;7.10;;;;;;;-2.25;39.53;100225.88;5040050;28;20077;-84
2022/03/11 07:41:31;;;;;;;8.30;5.70;;;;;;;0.80;37.83;100714.91;5347467;23;1255740;31
2022/03/11 07:43:57;;;;;;;7.80;5.70;;;;;;;-1.03;38.77;100478.38;5284009;23;20054;-84
2022/03/11 07:51:33;;;;;;;8.17;6.10;;;;;;;-2.55;38.95;100206.78;5341263;23;20041;-81
2022/03/11 07:53:58;;;;;;;12.30;8.00;;;;;;;-2.29;39.24;100187.34;5591529;23;20046;-82
2022/03/11 07:56:24;;;;;;;9.77;6.77;;;;;;;-1.24;39.31;100390.59;5535775;23;20037;-80
2022/03/11 08:01:25;;;;;;;11.87;7.77;;;;;;;-1.50;38.41;100307.31;5455754;23;20183;-81
2022/03/11 08:03:52;;;;;;;10.57;6.87;;;;;;;-1.44;38.11;100358.81;4740878;23;20038;-84
2022/03/11 09:08:21;;;;;;;10.13;6.87;;;;;;;-1.01;34.68;100211.34;5450969;23;19912;-83
2022/03/11 10:38:46;;;;;;;9.50;6.60;;;;;;;3.58;31.11;100347.59;5397191;23;20065;-85
2022/03/11 10:41:11;;;;;;;8.30;5.80;;;;;;;2.18;31.29;100132.63;5025045;28;20010;-84
2022/03/11 10:43:37;;;;;;;8.13;6.60;;;;;;;1.80;31.37;100113.69;5041895;28;20014;-84
2022/03/11 10:46:02;;;;;;;8.67;7.17;;;;;;;4.97;31.37;100630.84;5041851;28;20013;-86
2022/03/11 10:48:47;;;;;;;10.03;6.53;;;;;;;2.09;29.46;100142.88;5022126;28;20011;-84
2022/03/11 10:51:33;;;;;;;7.37;6.57;;;;;;;2.46;28.31;100144.50;5022093;28;20062;-85
2022/03/11 10:54:00;;;;;;;9.43;7.00;;;;;;;4.15;30.42;100303.22;5016503;28;20026;-83
2022/03/11 10:56:29;;;;;;;7.43;6.00;;;;;;;6.39;30.05;100604.84;4995327;28;20038;-89
2022/03/11 10:58:57;;;;;;;8.20;6.60;;;;;;;6.43;29.50;100564.28;4989223;28;20022;-90
2022/03/11 11:01:36;;;;;;;8.33;6.33;;;;;;;6.77;29.44;100601.72;4995184;28;20030;-89
2022/03/11 11:04:04;;;;;;;10.13;7.00;;;;;;;5.63;29.05;100445.88;4992163;28;20023;-89
2022/03/11 11:06:30;;;;;;;15.03;8.27;;;;;;;5.55;28.56;100427.34;4990155;28;20034;-90
2022/03/11 11:08:56;;;;;;;8.53;6.57;;;;;;;5.54;28.54;100488.53;4997622;28;20396;-89
2022/03/11 11:11:22;;;;;;;7.93;5.73;;;;;;;5.48;28.72;100420.94;4977354;28;20105;-89
2022/03/11 11:13:49;;;;;;;7.20;5.33;;;;;;;5.68;28.62;100467.28;4974590;28;20092;-89
2022/03/11 11:16:17;;;;;;;8.50;6.73;;;;;;;5.64;27.78;100405.63;4977314;28;20537;-89
2022/03/11 11:18:46;;;;;;;8.60;6.40;;;;;;;5.16;28.33;100432.16;5007768;28;20512;-90
2022/03/11 11:21:12;;;;;;;9.23;6.17;;;;;;;5.91;28.04;100523.13;4993109;28;20029;-89
2022/03/11 11:23:39;;;;;;;7.43;6.30;;;;;;;6.19;28.06;100605.63;4992652;28;20031;-89
2022/03/11 11:26:08;;;;;;;10.17;7.00;;;;;;;6.57;28.45;100545.63;4994267;28;20037;-87
2022/03/11 11:28:34;;;;;;;9.00;6.07;;;;;;;5.53;27.57;100400.44;4975845;28;20066;-90
2022/03/11 11:31:01;;;;;;;6.30;5.37;;;;;;;6.55;27.48;100496.84;4982846;28;20563;-89
2022/03/11 11:33:27;;;;;;;8.63;5.93;;;;;;;6.21;27.68;100496.22;4974224;28;20080;-89
2022/03/11 11:36:01;;;;;;;6.83;5.70;;;;;;;6.85;27.70;100565.16;4978916;28;20038;-89
2022/03/11 11:38:38;;;;;;;6.87;5.60;;;;;;;5.58;27.71;100399.09;4978326;28;20052;-89
2022/03/11 11:41:27;;;;;;;8.17;5.93;;;;;;;7.11;27.48;100570.81;4993242;28;20041;-89
2022/03/11 11:43:59;;;;;;;10.40;5.73;;;;;;;6.87;27.97;100557.16;4987455;28;20038;-89
2022/03/11 11:46:25;;;;;;;7.07;5.80;;;;;;;5.93;27.98;100487.13;4974162;28;20068;-89
2022/03/11 11:48:51;;;;;;;7.67;5.53;;;;;;;6.67;28.04;100570.13;4972956;28;20054;-88
2022/03/11 11:51:19;;;;;;;5.93;4.57;;;;;;;6.27;27.40;100456.38;4995674;28;20089;-89
2022/03/11 11:53:48;;;;;;;9.03;6.30;;;;;;;7.04;26.78;100567.06;4978605;28;20053;-89
2022/03/11 11:56:31;;;;;;;10.33;6.07;;;;;;;6.88;26.40;100564.91;4985247;28;20037;-89
2022/03/11 11:58:58;;;;;;;7.13;6.00;;;;;;;6.03;27.44;100438.25;4988275;28;20462;-89
2022/03/11 12:01:39;;;;;;;6.37;5.63;;;;;;;7.03;27.23;100557.53;4972238;28;20419;-89
2022/03/11 12:04:29;;;;;;;6.57;5.93;;;;;;;7.00;27.02;100557.78;4987876;28;20053;-91
2022/03/11 12:07:14;;;;;;;6.27;4.63;;;;;;;5.15;27.53;100310.09;4985933;28;20031;-90
2022/03/11 12:12:06;;;;;;;7.20;5.47;;;;;;;5.15;28.35;100422.66;5000732;28;20519;-88
2022/03/11 12:14:32;;;;;;;12.03;8.83;;;;;;;5.83;28.50;100567.41;4986244;28;20109;-89
2022/03/11 12:23:36;;;;;;;8.20;6.70;;;;;;;3.47;29.52;100384.94;5271944;23;20053;-89
2022/03/11 12:26:10;;;;;;;6.80;5.83;;;;;;;3.16;29.02;100323.72;5020390;28;20265;-83
2022/03/11 12:28:39;;;;;;;7.87;6.13;;;;;;;2.33;29.01;100098.59;5019952;28;20065;-85
2022/03/11 12:31:21;;;;;;;8.97;6.40;;;;;;;3.38;27.68;100329.03;5019960;28;20022;-84
2022/03/11 12:33:51;;;;;;;7.93;5.93;;;;;;;1.87;29.18;100135.75;5020242;28;20013;-85
2022/03/11 12:39:29;;;;;;;7.53;5.63;;;;;;;3.68;29.69;100377.31;6043872;23;20024;-83
2022/03/11 12:41:54;;;;;;;9.17;6.57;;;;;;;1.66;29.96;100111.22;5038938;28;20024;-86
2022/03/11 12:44:20;;;;;;;8.13;6.37;;;;;;;2.21;30.16;100259.22;5039648;28;20009;-86
2022/03/11 12:46:45;;;;;;;7.67;6.23;;;;;;;4.54;30.72;100578.28;5022902;28;20021;-85
2022/03/11 12:49:13;;;;;;;7.77;6.23;;;;;;;2.55;30.94;100263.75;5039618;28;20006;-85
2022/03/11 12:51:38;;;;;;;7.67;5.33;;;;;;;1.65;30.92;100185.88;5039591;28;20025;-88
2022/03/11 12:54:15;;;;;;;7.60;6.10;;;;;;;1.97;30.34;100216.66;5022808;28;20010;-85
2022/03/11 12:56:41;;;;;;;8.90;7.03;;;;;;;1.67;30.88;100178.78;5038777;28;20033;-86
2022/03/11 12:59:07;;;;;;;9.27;7.00;;;;;;;1.83;30.82;100209.78;5204701;23;20048;-86
2022/03/11 13:01:35;;;;;;;10.07;7.63;;;;;;;1.12;31.94;100140.91;5039115;28;20018;-87
2022/03/11 13:04:01;;;;;;;9.87;7.90;;;;;;;1.40;32.21;100178.03;5385957;23;19997;-82
2022/03/11 13:06:27;;;;;;;10.40;8.40;;;;;;;2.16;32.41;100296.00;5319224;23;20029;-84
2022/03/11 13:09:01;;;;;;;10.40;8.20;;;;;;;0.91;32.13;100013.19;5039254;28;20069;-84
2022/03/11 13:11:27;;;;;;;9.40;7.23;;;;;;;1.16;32.09;100098.16;5038996;28;20029;-85
2022/03/11 13:13:54;;;;;;;11.03;7.73;;;;;;;1.41;32.01;100073.88;5039008;28;20030;-85
2022/03/11 13:16:21;;;;;;;10.07;6.73;;;;;;;3.24;31.73;100360.53;5038849;28;20037;-85
2022/03/11 13:18:50;;;;;;;8.77;6.23;;;;;;;1.28;32.06;100070.47;5038809;28;20036;-85
2022/03/11 13:21:17;;;;;;;8.80;6.13;;;;;;;4.85;31.74;100621.28;5022051;28;20017;-86
2022/03/11 13:23:44;;;;;;;8.43;6.57;;;;;;;4.93;31.41;100564.81;5022153;28;20022;-84
2022/03/11 13:26:18;;;;;;;7.83;5.73;;;;;;;2.23;31.20;100159.19;5039166;28;20029;-86
2022/03/11 13:28:53;;;;;;;11.00;7.40;;;;;;;2.58;31.18;100197.53;5039173;28;20014;-84
2022/03/11 13:31:22;;;;;;;9.20;6.67;;;;;;;2.32;30.97;100061.31;5027030;28;20014;-85
2022/03/11 13:34:05;;;;;;;6.03;5.43;;;;;;;3.91;30.00;100312.94;5016362;28;20025;-86
2022/03/11 13:36:35;;;;;;;;;;;;;;;5.48;29.68;100550.09;4997789;28;20041;-85
2022/03/11 13:39:38;;;;;;;7.83;5.50;;;;;;;2.57;29.85;100075.94;5008080;28;19914;-87
2022/03/11 13:45:10;;;;;;;10.47;7.10;;;;;;;3.05;30.45;100148.88;5075773;23;20447;-88
2022/03/11 13:47:36;;;;;;;8.57;6.57;;;;;;;4.27;30.42;100304.88;4991478;28;20034;-90
2022/03/11 13:50:07;;;;;;;6.20;5.60;;;;;;;5.63;30.07;100465.03;4973958;28;20102;-90
2022/03/11 13:52:42;;;;;;;9.73;6.70;;;;;;;6.25;29.31;100577.13;4988046;28;20100;-90
2022/03/11 13:55:14;;;;;;;6.20;5.53;;;;;;;5.64;29.76;100499.94;4972768;28;20089;-91
2022/03/11 13:57:39;;;;;;;9.23;6.75;;;;;;;4.51;30.11;100315.22;4991202;28;20462;-90
2022/03/11 14:00:24;;;;;;;7.83;5.80;;;;;;;4.74;29.44;100329.94;4989400;28;20112;-91
2022/03/11 14:02:51;;;;;;;8.17;5.93;;;;;;;4.22;30.20;100270.41;4968307;28;20037;-91
2022/03/11 14:05:26;;;;;;;9.17;6.33;;;;;;;5.77;30.45;100553.03;4967626;28;20026;-90
2022/03/11 14:08:05;;;;;;;7.50;5.57;;;;;;;4.87;30.46;100473.69;4962532;28;20032;-88
2022/03/11 14:10:38;;;;;;;7.87;6.43;;;;;;;3.24;30.69;100248.31;4997465;28;20058;-90
2022/03/11 14:13:06;;;;;;;5.93;5.37;;;;;;;4.11;30.87;100395.84;5005770;28;20066;-86
2022/03/11 14:15:33;;;;;;;8.93;6.80;;;;;;;3.57;31.14;100320.66;5015556;28;20026;-86
2022/03/11 14:17:59;;;;;;;5.97;5.37;;;;;;;1.92;31.13;100045.13;5021016;28;20090;-83
2022/03/11 14:20:25;;;;;;;8.47;6.53;;;;;;;3.25;31.26;100275.25;5021751;28;20010;-84
2022/03/11 14:22:50;;;;;;;6.83;5.50;;;;;;;3.01;31.03;100303.97;5005753;28;20029;-82
2022/03/11 14:25:16;;;;;;;9.57;6.37;;;;;;;2.73;31.03;100287.66;5021860;28;20042;-81
2022/03/11 14:27:41;;;;;;;7.60;6.20;;;;;;;1.92;31.50;100152.72;5021797;28;20025;-81
2022/03/11 14:30:08;;;;;;;8.07;6.47;;;;;;;1.79;31.48;100140.66;5022186;28;20026;-86
2022/03/11 14:32:33;;;;;;;11.73;8.87;;;;;;;1.41;31.96;100068.66;5022451;28;20020;-84
2022/03/11 14:34:59;;;;;;;9.87;7.60;;;;;;;1.53;31.98;100106.88;5022441;28;20019;-84
2022/03/11 14:37:24;;;;;;;12.30;8.47;;;;;;;3.31;31.91;100402.66;5022588;28;20020;-85
2022/03/11 14:39:50;;;;;;;16.30;10.17;;;;;;;1.61;32.16;100098.53;5022448;28;20044;-85
2022/03/11 14:42:16;;;;;;;14.87;9.53;;;;;;;1.79;31.92;100138.88;5022488;28;20031;-85
2022/03/11 14:44:42;;;;;;;15.10;10.00;;;;;;;2.41;31.87;100242.22;5022321;28;20026;-86
2022/03/11 14:47:08;;;;;;;14.17;8.67;;;;;;;4.02;31.88;100507.13;5005663;28;20014;-85
2022/03/11 14:49:34;;;;;;;13.17;9.97;;;;;;;2.50;31.93;100288.47;5022366;28;20050;-87
2022/03/11 14:52:00;;;;;;;8.77;7.07;;;;;;;0.61;32.03;99997.06;5005708;28;20010;-84
2022/03/11 14:54:26;;;;;;;8.93;6.57;;;;;;;2.58;32.22;100298.34;5022201;28;20070;-87
2022/03/11 14:56:52;;;;;;;6.43;5.70;;;;;;;1.77;32.13;100172.00;5005572;28;20018;-83
2022/03/11 14:59:20;;;;;;;6.53;5.83;;;;;;;2.42;32.56;100294.22;5005165;28;20042;-83
2022/03/11 15:01:46;;;;;;;7.70;6.13;;;;;;;2.39;32.81;100310.06;5021586;28;20006;-84
2022/03/11 15:24:53;;;;;;;12.03;7.97;;;;;;;1.69;33.43;100291.44;5992919;23;20009;-86
2022/03/11 15:27:20;;;;;;;11.03;7.50;;;;;;;1.63;33.67;100241.56;5828558;23;20040;-85
2022/03/11 16:31:50;;;;;;;28.37;16.97;;;;;;;1.10;34.42;100269.34;6006244;23;20013;-84
2022/03/11 17:57:01;;;;;;;16.20;10.17;;;;;;;-0.42;36.45;100150.78;5036437;23;20087;-84
2022/03/11 20:50:13;;;;;;;14.73;10.97;;;;;;;0.35;36.93;100400.56;5909383;23;19918;-82
2022/03/11 22:20:34;;;;;;;12.27;9.07;;;;;;;-0.91;47.56;100325.69;5309915;23;20036;-81
2022/03/11 22:33:20;;;;;;;13.27;10.37;;;;;;;-0.59;50.55;100503.69;5424508;23;20046;-81
2022/03/11 22:35:46;;;;;;;12.80;9.40;;;;;;;-1.67;50.98;100335.88;5043569;28;20014;-81
2022/03/11 22:38:12;;;;;;;13.33;10.50;;;;;;;-1.39;51.41;100374.94;5026514;28;20002;-83
